Time;durP1;ratioP1;P1;durP2;ratioP2;P2;SDS_P1;SDS_P2;PMS_P1;PMS_P2;Temp;Humidity;BMP_temperature;BMP_pressure;BME280_temperature;BME280_humidity;BME280_pressure;Samples;Min_cycle;Max_cycle;Signal;HPM_P1;HPM_P2
2023/08/13 00:00:46;;;;;;;3.08;1.45;;;;;22.20;98819.00;;;;5054591;28;20051;-64
2023/08/13 00:03:13;;;;;;;3.17;1.52;;;;;21.90;98822.00;;;;5071947;28;20047;-65
2023/08/13 00:05:40;;;;;;;1.63;1.50;;;;;21.90;98818.00;;;;5054462;28;20048;-64
2023/08/13 00:08:06;;;;;;;2.97;1.48;;;;;21.70;98821.00;;;;5072202;28;20378;-65
2023/08/13 00:10:34;;;;;;;2.80;1.45;;;;;21.60;98822.00;;;;5054444;28;20044;-65
2023/08/13 00:13:01;;;;;;;2.75;1.40;;;;;21.50;98831.00;;;;5072110;28;20123;-65
2023/08/13 00:15:27;;;;;;;2.50;1.58;;;;;21.50;98830.00;;;;5054533;28;20049;-64
2023/08/13 00:17:54;;;;;;;1.70;1.60;;;;;21.40;98825.00;;;;5054190;28;20053;-64
2023/08/13 00:20:20;;;;;;;1.88;1.35;;;;;21.40;98830.00;;;;5053830;28;20048;-64
2023/08/13 00:22:47;;;;;;;3.40;1.42;;;;;21.40;98818.00;;;;5054171;28;20568;-64
2023/08/13 00:25:13;;;;;;;1.55;1.35;;;;;21.30;98826.00;;;;5054108;28;20126;-64
2023/08/13 00:27:40;;;;;;;3.28;1.23;;;;;21.20;98825.00;;;;5054221;28;20440;-64
2023/08/13 00:30:07;;;;;;;4.65;1.40;;;;;21.20;98822.00;;;;5071965;28;20451;-64
2023/08/13 00:32:34;;;;;;;1.98;1.73;;;;;21.30;98833.00;;;;5054122;28;20053;-64
2023/08/13 00:35:00;;;;;;;5.78;1.80;;;;;21.30;98831.00;;;;5055930;28;20052;-64
2023/08/13 00:37:27;;;;;;;3.47;1.58;;;;;21.30;98822.00;;;;5054208;28;20045;-64
2023/08/13 00:39:54;;;;;;;1.25;1.15;;;;;21.30;98825.00;;;;5071880;28;20046;-64
2023/08/13 00:42:20;;;;;;;1.73;1.38;;;;;21.30;98823.00;;;;5054087;28;20051;-64
2023/08/13 00:44:48;;;;;;;5.57;2.28;;;;;21.30;98825.00;;;;5071899;28;20036;-64
2023/08/13 00:47:16;;;;;;;4.55;1.63;;;;;21.20;98821.00;;;;5071783;28;20040;-64
2023/08/13 00:49:43;;;;;;;1.60;1.50;;;;;21.20;98818.00;;;;5071924;28;20037;-64
2023/08/13 00:52:09;;;;;;;4.15;1.58;;;;;21.20;98817.00;;;;5072154;28;20056;-64
2023/08/13 00:54:36;;;;;;;4.65;1.60;;;;;21.20;98820.00;;;;5053986;28;20489;-65
2023/08/13 00:57:03;;;;;;;2.08;1.55;;;;;21.20;98830.00;;;;5054330;28;20048;-66
2023/08/13 00:59:32;;;;;;;2.40;1.80;;;;;21.20;98819.00;;;;5071935;28;20116;-66
2023/08/13 01:01:58;;;;;;;2.17;1.58;;;;;21.20;98820.00;;;;5072179;28;20127;-65
2023/08/13 01:04:25;;;;;;;2.80;1.60;;;;;21.10;98808.00;;;;5071564;28;20048;-64
2023/08/13 01:07:19;;;;;;;3.58;2.13;;;;;21.00;98814.00;;;;5053628;28;20056;-64
2023/08/13 01:10:12;;;;;;;4.10;2.15;;;;;20.80;98819.00;;;;5053483;28;20041;-64
2023/08/13 01:12:40;;;;;;;;;;;;;20.80;98820.00;;;;5071917;28;20053;-64
2023/08/13 01:15:12;;;;;;;2.97;1.85;;;;;20.70;98816.00;;;;5055683;28;19920;-64
2023/08/13 01:17:39;;;;;;;4.30;1.90;;;;;20.60;98818.00;;;;5041076;28;20489;-64
2023/08/13 01:20:07;;;;;;;5.40;1.98;;;;;20.70;98806.00;;;;5057237;28;20048;-64
2023/08/13 01:22:38;;;;;;;3.90;1.92;;;;;20.80;98817.00;;;;5074638;28;20122;-65
2023/08/13 01:25:07;;;;;;;4.00;1.70;;;;;20.80;98808.00;;;;5057241;28;20148;-64
2023/08/13 01:27:37;;;;;;;4.07;1.90;;;;;20.80;98796.00;;;;5057522;28;20135;-64
2023/08/13 01:30:20;;;;;;;5.18;1.90;;;;;20.70;98793.00;;;;5075175;28;20040;-64
2023/08/13 01:32:52;;;;;;;2.70;1.70;;;;;20.60;98800.00;;;;5075214;28;20071;-64
2023/08/13 01:35:21;;;;;;;3.53;2.13;;;;;20.50;98794.00;;;;5057405;28;20540;-64
2023/08/13 01:37:50;;;;;;;2.53;1.90;;;;;20.40;98795.00;;;;5040750;28;20045;-64
2023/08/13 01:40:17;;;;;;;4.30;1.98;;;;;20.40;98795.00;;;;5057291;28;20041;-64
2023/08/13 01:42:43;;;;;;;2.10;1.90;;;;;20.40;98804.00;;;;5058556;28;20044;-64
2023/08/13 01:45:10;;;;;;;2.40;1.80;;;;;20.50;98812.00;;;;5074965;28;20068;-64
2023/08/13 01:47:36;;;;;;;2.22;1.77;;;;;20.60;98819.00;;;;5057644;28;20127;-64
2023/08/13 01:50:04;;;;;;;4.20;2.20;;;;;20.60;98816.00;;;;5056536;28;20045;-64
2023/08/13 01:52:31;;;;;;;2.63;2.35;;;;;20.60;98816.00;;;;5057367;28;20076;-65
2023/08/13 01:54:58;;;;;;;2.60;1.40;;;;;20.70;98820.00;;;;5057346;28;20045;-64
2023/08/13 01:57:24;;;;;;;5.30;1.92;;;;;20.60;98817.00;;;;5075152;28;20052;-65
2023/08/13 01:59:51;;;;;;;2.13;2.03;;;;;20.50;98813.00;;;;5057013;28;20135;-65
2023/08/13 02:02:18;;;;;;;5.20;2.15;;;;;20.50;98817.00;;;;5057884;28;20048;-65
2023/08/13 02:04:44;;;;;;;2.85;1.88;;;;;20.50;98809.00;;;;5056595;28;20052;-65
2023/08/13 02:07:11;;;;;;;4.18;1.70;;;;;20.50;98812.00;;;;5057071;28;20483;-65
2023/08/13 02:09:38;;;;;;;2.92;2.00;;;;;20.50;98811.00;;;;5056593;28;20469;-65
2023/08/13 02:12:05;;;;;;;4.35;2.08;;;;;20.50;98811.00;;;;5057059;28;20049;-65
2023/08/13 02:14:31;;;;;;;2.60;1.80;;;;;20.60;98811.00;;;;5056679;28;20083;-65
2023/08/13 02:16:59;;;;;;;5.63;1.60;;;;;20.60;98812.00;;;;5056767;28;20048;-65
2023/08/13 02:19:26;;;;;;;3.35;2.03;;;;;20.60;98816.00;;;;5074012;28;20064;-65
2023/08/13 02:21:52;;;;;;;2.70;1.60;;;;;20.50;98809.00;;;;5056455;28;20044;-65
2023/08/13 02:24:19;;;;;;;2.50;1.73;;;;;20.50;98811.00;;;;5056445;28;20057;-65
2023/08/13 02:26:46;;;;;;;3.25;1.67;;;;;20.60;98819.00;;;;5055094;28;20048;-65
2023/08/13 02:29:12;;;;;;;4.18;1.90;;;;;20.60;98811.00;;;;5056432;28;20044;-64
2023/08/13 02:31:39;;;;;;;3.35;2.05;;;;;20.50;98812.00;;;;5056363;28;20090;-64
2023/08/13 02:34:06;;;;;;;3.33;2.22;;;;;20.50;98809.00;;;;5073944;28;20044;-65
2023/08/13 02:36:33;;;;;;;3.88;1.92;;;;;20.60;98799.00;;;;5074131;28;20036;-66
2023/08/13 02:38:59;;;;;;;2.33;1.90;;;;;20.50;98813.00;;;;5074017;28;20049;-65
2023/08/13 02:41:28;;;;;;;2.20;1.77;;;;;20.50;98805.00;;;;5073755;28;20117;-65
2023/08/13 02:43:56;;;;;;;2.53;1.67;;;;;20.60;98808.00;;;;5074080;28;20047;-65
2023/08/13 02:46:24;;;;;;;3.97;1.95;;;;;20.60;98813.00;;;;5055978;28;20051;-65
2023/08/13 02:48:54;;;;;;;2.03;1.60;;;;;20.60;98806.00;;;;5055534;28;20041;-65
2023/08/13 02:51:21;;;;;;;3.45;1.83;;;;;20.50;98801.00;;;;5039513;28;20044;-64
2023/08/13 02:53:47;;;;;;;2.35;1.83;;;;;20.40;98806.00;;;;5056311;28;20046;-65
2023/08/13 02:56:14;;;;;;;6.25;2.10;;;;;20.30;98805.00;;;;5056279;28;20052;-66
2023/08/13 02:58:41;;;;;;;3.38;1.90;;;;;20.20;98803.00;;;;5039537;28;20072;-65
2023/08/13 03:01:09;;;;;;;3.10;2.00;;;;;20.20;98796.00;;;;5073355;28;20044;-65
2023/08/13 03:03:35;;;;;;;4.85;1.92;;;;;20.10;98800.00;;;;5055370;28;20087;-65
2023/08/13 03:06:24;;;;;;;3.35;1.75;;;;;20.20;98798.00;;;;5073214;28;20090;-65
2023/08/13 03:08:51;;;;;;;5.97;1.85;;;;;20.20;98797.00;;;;5055718;28;20037;-65
2023/08/13 03:11:18;;;;;;;3.30;1.50;;;;;20.20;98807.00;;;;5073118;28;20040;-65
2023/08/13 03:13:46;;;;;;;3.00;1.70;;;;;20.20;98799.00;;;;5038782;28;20048;-65
2023/08/13 03:16:13;;;;;;;2.17;1.40;;;;;20.20;98793.00;;;;5055240;28;20052;-65
2023/08/13 03:18:40;;;;;;;3.05;1.67;;;;;20.10;98801.00;;;;5073177;28;20044;-65
2023/08/13 03:21:10;;;;;;;5.20;2.03;;;;;20.10;98794.00;;;;5055254;28;20045;-65
2023/08/13 03:23:37;;;;;;;3.58;2.00;;;;;20.10;98795.00;;;;5038636;28;20071;-66
2023/08/13 03:26:04;;;;;;;6.20;1.77;;;;;20.00;98788.00;;;;5055073;28;20070;-65
2023/08/13 03:28:32;;;;;;;2.72;1.30;;;;;20.10;98786.00;;;;5055270;28;20145;-64
2023/08/13 03:31:06;;;;;;;2.70;1.50;;;;;20.10;98794.00;;;;5039634;28;20135;-64
2023/08/13 03:33:43;;;;;;;2.25;1.67;;;;;20.10;98788.00;;;;5054771;28;20055;-63
2023/08/13 03:36:12;;;;;;;2.47;1.88;;;;;20.10;98800.00;;;;5054935;28;20135;-64
2023/08/13 03:38:38;;;;;;;2.88;1.70;;;;;20.20;98798.00;;;;5054498;28;20067;-63
2023/08/13 03:41:05;;;;;;;3.75;1.45;;;;;20.20;98803.00;;;;5055260;28;20040;-65
2023/08/13 03:43:31;;;;;;;4.32;1.75;;;;;20.20;98801.00;;;;5073186;28;20477;-65
2023/08/13 03:45:58;;;;;;;5.43;1.80;;;;;20.20;98792.00;;;;5073104;28;20036;-65
2023/08/13 03:48:25;;;;;;;3.25;1.85;;;;;20.20;98792.00;;;;5038146;28;20052;-65
2023/08/13 03:50:51;;;;;;;3.13;2.30;;;;;20.20;98800.00;;;;5054633;28;20076;-65
2023/08/13 03:53:24;;;;;;;3.13;1.67;;;;;20.10;98803.00;;;;5072506;28;20044;-65
2023/08/13 03:55:52;;;;;;;4.35;1.80;;;;;20.10;98799.00;;;;5038561;28;20048;-65
2023/08/13 03:58:20;;;;;;;3.75;1.75;;;;;20.10;98802.00;;;;5054507;28;20051;-65
2023/08/13 04:00:47;;;;;;;4.53;1.58;;;;;20.00;98810.00;;;;5054568;28;20121;-65
2023/08/13 04:03:14;;;;;;;4.68;1.88;;;;;19.90;98803.00;;;;5072436;28;20112;-65
2023/08/13 04:05:52;;;;;;;4.43;1.92;;;;;19.80;98807.00;;;;5039977;28;20048;-65
2023/08/13 04:08:20;;;;;;;4.15;1.88;;;;;19.80;98795.00;;;;5072542;28;20051;-65
2023/08/13 04:10:49;;;;;;;2.33;1.75;;;;;19.80;98794.00;;;;5054378;28;20059;-65
2023/08/13 04:13:16;;;;;;;3.90;2.20;;;;;19.70;98803.00;;;;5054490;28;20044;-65
2023/08/13 04:15:43;;;;;;;4.07;1.60;;;;;19.70;98798.00;;;;5054626;28;20146;-65
2023/08/13 04:18:11;;;;;;;3.08;2.00;;;;;19.70;98801.00;;;;5037995;28;20429;-64
2023/08/13 04:20:41;;;;;;;6.25;1.92;;;;;19.80;98806.00;;;;5053866;28;20053;-65
2023/08/13 04:23:08;;;;;;;5.57;2.63;;;;;19.90;98801.00;;;;5054388;28;20080;-65
2023/08/13 04:25:37;;;;;;;5.53;2.50;;;;;19.90;98813.00;;;;5054086;28;20052;-65
2023/08/13 04:28:05;;;;;;;3.10;2.70;;;;;20.00;98815.00;;;;5054194;28;20527;-64
2023/08/13 04:30:36;;;;;;;6.63;2.03;;;;;20.00;98812.00;;;;5053896;28;20071;-65
2023/08/13 04:33:03;;;;;;;5.13;1.70;;;;;19.90;98812.00;;;;5054407;28;20052;-65
2023/08/13 04:35:31;;;;;;;2.45;2.13;;;;;19.90;98817.00;;;;5054137;28;20500;-65
2023/08/13 04:37:59;;;;;;;5.65;2.45;;;;;19.90;98812.00;;;;5057174;28;20045;-64
2023/08/13 04:40:26;;;;;;;9.30;2.03;;;;;19.80;98813.00;;;;5057457;28;20064;-65
2023/08/13 04:42:53;;;;;;;4.82;2.13;;;;;19.80;98815.00;;;;5057927;28;20108;-64
2023/08/13 04:45:21;;;;;;;6.88;1.85;;;;;19.90;98814.00;;;;5057745;28;20417;-64
2023/08/13 04:47:50;;;;;;;5.18;2.20;;;;;20.00;98811.00;;;;5061163;28;20060;-64
2023/08/13 04:50:16;;;;;;;4.13;1.98;;;;;20.00;98812.00;;;;5062655;28;20051;-62
2023/08/13 04:52:43;;;;;;;7.20;2.10;;;;;20.00;98808.00;;;;5061707;28;20047;-62
2023/08/13 04:55:13;;;;;;;3.08;2.00;;;;;19.90;98803.00;;;;5047941;28;20041;-62
2023/08/13 04:57:41;;;;;;;4.43;2.08;;;;;19.90;98811.00;;;;5067137;28;20049;-62
2023/08/13 05:00:09;;;;;;;5.13;2.17;;;;;19.90;98812.00;;;;5063166;28;20044;-62
2023/08/13 05:02:39;;;;;;;3.53;2.05;;;;;19.80;98803.00;;;;5063274;28;20045;-62
2023/08/13 05:05:07;;;;;;;3.92;1.88;;;;;19.80;98807.00;;;;5061737;28;20140;-62
2023/08/13 05:07:33;;;;;;;5.13;2.15;;;;;19.90;98805.00;;;;5079946;28;20094;-62
2023/08/13 05:10:02;;;;;;;2.63;2.13;;;;;19.90;98808.00;;;;5061939;28;20515;-62
2023/08/13 05:12:30;;;;;;;3.67;1.95;;;;;20.00;98805.00;;;;5047027;28;20135;-62
2023/08/13 05:14:57;;;;;;;4.85;1.75;;;;;20.10;98810.00;;;;5047255;28;20064;-62
2023/08/13 05:17:25;;;;;;;4.25;2.03;;;;;20.20;98811.00;;;;5064849;28;20048;-62
2023/08/13 05:19:52;;;;;;;2.63;2.22;;;;;20.20;98812.00;;;;5083496;28;20044;-63
2023/08/13 05:22:18;;;;;;;5.43;2.17;;;;;20.20;98808.00;;;;5049254;28;20645;-62
2023/08/13 05:24:47;;;;;;;3.15;2.15;;;;;20.20;98809.00;;;;5050168;28;20052;-62
2023/08/13 05:27:15;;;;;;;3.17;2.17;;;;;20.20;98811.00;;;;5066890;28;20449;-62
2023/08/13 05:29:41;;;;;;;2.60;1.80;;;;;20.20;98817.00;;;;5050049;28;20082;-62
2023/08/13 05:32:08;;;;;;;3.63;2.15;;;;;20.30;98821.00;;;;5065932;28;20074;-62
2023/08/13 05:34:35;;;;;;;5.20;2.88;;;;;20.40;98816.00;;;;5063959;28;20076;-62
2023/08/13 05:37:01;;;;;;;2.75;2.55;;;;;20.60;98816.00;;;;5062520;28;20082;-62
2023/08/13 05:39:28;;;;;;;5.47;2.63;;;;;20.80;98815.00;;;;5060726;28;20045;-62
2023/08/13 05:41:54;;;;;;;8.07;3.13;;;;;20.90;98817.00;;;;5044706;28;20086;-62
2023/08/13 05:44:21;;;;;;;4.53;2.97;;;;;20.90;98812.00;;;;5060042;28;20052;-62
2023/08/13 05:46:48;;;;;;;4.40;3.60;;;;;20.90;98809.00;;;;5077741;28;20552;-62
2023/08/13 05:49:15;;;;;;;4.63;2.92;;;;;21.00;98817.00;;;;5059235;28;20064;-62
2023/08/13 05:51:42;;;;;;;3.38;2.78;;;;;21.00;98804.00;;;;5060087;28;20066;-62
2023/08/13 05:54:09;;;;;;;5.35;2.38;;;;;20.90;98811.00;;;;5076643;28;20045;-63
2023/08/13 05:56:37;;;;;;;5.22;2.60;;;;;20.90;98813.00;;;;5062707;28;20048;-63
2023/08/13 05:59:04;;;;;;;4.13;2.67;;;;;21.10;98808.00;;;;5085275;28;20048;-62
2023/08/13 06:01:30;;;;;;;2.47;2.20;;;;;21.30;98810.00;;;;5085980;28;20053;-62
2023/08/13 06:03:57;;;;;;;6.28;3.33;;;;;21.40;98815.00;;;;5064309;28;20049;-62
2023/08/13 06:06:24;;;;;;;9.52;3.90;;;;;21.50;98817.00;;;;5085180;28;20048;-62
2023/08/13 06:08:50;;;;;;;5.07;4.57;;;;;21.60;98821.00;;;;5088297;28;20087;-63
2023/08/13 06:11:17;;;;;;;8.32;7.40;;;;;21.80;98816.00;;;;5086065;28;20054;-62
2023/08/13 06:13:43;;;;;;;5.70;4.70;;;;;21.80;98813.00;;;;5087766;28;20040;-63
2023/08/13 06:16:10;;;;;;;7.28;6.30;;;;;21.90;98815.00;;;;5073173;28;20391;-63
2023/08/13 06:18:37;;;;;;;6.65;5.28;;;;;22.00;98807.00;;;;5052115;28;20055;-63
2023/08/13 06:21:06;;;;;;;6.25;5.65;;;;;22.10;98802.00;;;;5084145;28;20055;-62
2023/08/13 06:23:32;;;;;;;6.50;5.65;;;;;22.30;98804.00;;;;5066149;28;20119;-63
2023/08/13 06:25:59;;;;;;;9.60;5.88;;;;;22.40;98806.00;;;;5092711;28;20060;-63
2023/08/13 06:28:26;;;;;;;6.95;5.10;;;;;22.50;98811.00;;;;5085375;28;20115;-63
2023/08/13 06:30:52;;;;;;;10.38;9.38;;;;;22.50;98811.00;;;;5063836;28;20071;-63
2023/08/13 06:33:19;;;;;;;9.23;6.65;;;;;22.70;98809.00;;;;5080738;28;20052;-63
2023/08/13 06:35:46;;;;;;;5.35;4.85;;;;;22.80;98808.00;;;;5080778;28;20048;-63
2023/08/13 06:38:17;;;;;;;7.60;4.45;;;;;22.90;98809.00;;;;5085795;28;20037;-63
2023/08/13 06:40:44;;;;;;;7.53;4.70;;;;;23.00;98802.00;;;;5064410;28;20048;-63
2023/08/13 06:43:11;;;;;;;5.40;4.32;;;;;23.10;98813.00;;;;5051927;28;20072;-63
2023/08/13 06:45:38;;;;;;;4.32;3.80;;;;;23.30;98818.00;;;;5065053;28;20048;-63
2023/08/13 06:48:05;;;;;;;6.35;4.88;;;;;23.30;98817.00;;;;5064029;28;20041;-63
2023/08/13 06:50:33;;;;;;;5.30;4.32;;;;;23.40;98815.00;;;;5068276;28;20055;-62
2023/08/13 06:52:59;;;;;;;5.95;4.25;;;;;23.60;98816.00;;;;5063045;28;20464;-62
2023/08/13 06:55:26;;;;;;;6.53;4.07;;;;;23.60;98819.00;;;;5068688;28;20048;-62
2023/08/13 06:57:52;;;;;;;5.07;3.50;;;;;23.70;98813.00;;;;5068803;28;20067;-62
2023/08/13 07:00:20;;;;;;;3.50;3.20;;;;;23.80;98811.00;;;;5066615;28;20044;-62
2023/08/13 07:02:57;;;;;;;5.10;3.55;;;;;23.90;98817.00;;;;5079758;28;20041;-62
2023/08/13 07:05:24;;;;;;;4.72;3.10;;;;;24.00;98809.00;;;;5060519;28;20044;-61
2023/08/13 07:07:51;;;;;;;4.50;3.20;;;;;24.10;98815.00;;;;5060247;28;20497;-61
2023/08/13 07:10:18;;;;;;;4.88;3.25;;;;;24.10;98811.00;;;;5066623;28;20048;-61
2023/08/13 07:12:44;;;;;;;5.43;2.97;;;;;24.20;98811.00;;;;5079753;28;20147;-61
2023/08/13 07:15:11;;;;;;;4.63;3.45;;;;;24.30;98814.00;;;;5063337;28;20055;-61
2023/08/13 07:17:38;;;;;;;5.95;3.42;;;;;24.40;98803.00;;;;5067942;28;20056;-61
2023/08/13 07:20:09;;;;;;;3.00;2.80;;;;;24.30;98808.00;;;;5085140;28;20045;-62
2023/08/13 07:22:39;;;;;;;3.58;2.83;;;;;24.30;98812.00;;;;5062533;28;20496;-61
2023/08/13 07:25:06;;;;;;;5.47;4.57;;;;;24.40;98802.00;;;;5073837;28;20112;-61
2023/08/13 07:27:33;;;;;;;10.38;5.18;;;;;24.50;98804.00;;;;5073040;28;20044;-61
2023/08/13 07:30:00;;;;;;;4.00;2.47;;;;;24.50;98813.00;;;;5039019;28;20098;-62
2023/08/13 07:32:28;;;;;;;9.48;4.35;;;;;24.70;98824.00;;;;5055863;28;20106;-61
2023/08/13 07:34:55;;;;;;;3.97;2.67;;;;;24.70;98818.00;;;;5073449;28;20036;-62
2023/08/13 07:37:21;;;;;;;7.38;4.10;;;;;24.80;98819.00;;;;5058506;28;20043;-62
2023/08/13 07:39:48;;;;;;;2.30;2.10;;;;;24.90;98812.00;;;;5074979;28;20054;-62
2023/08/13 07:42:14;;;;;;;4.57;2.40;;;;;25.00;98821.00;;;;5073483;28;20059;-62
2023/08/13 07:44:41;;;;;;;3.05;2.03;;;;;25.20;98812.00;;;;5072900;28;20109;-63
2023/08/13 07:47:08;;;;;;;3.97;2.05;;;;;25.30;98822.00;;;;5038594;28;20084;-63
2023/08/13 07:49:34;;;;;;;3.42;1.83;;;;;25.40;98816.00;;;;5073070;28;20041;-63
2023/08/13 07:52:01;;;;;;;3.63;1.80;;;;;25.40;98808.00;;;;5074492;28;20049;-63
2023/08/13 07:54:28;;;;;;;2.75;1.98;;;;;25.40;98816.00;;;;5073352;28;20050;-63
2023/08/13 07:56:55;;;;;;;5.20;3.33;;;;;25.50;98823.00;;;;5073784;28;20044;-63
2023/08/13 07:59:22;;;;;;;3.63;2.20;;;;;25.60;98821.00;;;;5074098;28;20040;-63
2023/08/13 08:01:49;;;;;;;2.65;1.73;;;;;25.60;98811.00;;;;5074548;28;20127;-63
2023/08/13 08:04:16;;;;;;;3.28;2.10;;;;;25.60;98813.00;;;;5073984;28;20111;-62
2023/08/13 08:06:42;;;;;;;2.85;2.00;;;;;25.70;98819.00;;;;5074387;28;20524;-61
2023/08/13 08:09:09;;;;;;;3.95;2.03;;;;;25.80;98824.00;;;;5073305;28;20037;-63
2023/08/13 08:11:36;;;;;;;3.13;1.77;;;;;25.90;98812.00;;;;5074083;28;20040;-63
2023/08/13 08:14:03;;;;;;;4.72;2.05;;;;;25.90;98816.00;;;;5073707;28;20064;-63
2023/08/13 08:16:29;;;;;;;3.28;2.45;;;;;26.00;98818.00;;;;5073695;28;20576;-63
2023/08/13 08:18:56;;;;;;;10.70;6.00;;;;;26.00;98810.00;;;;5073434;28;20044;-63
2023/08/13 08:21:22;;;;;;;3.65;1.92;;;;;26.00;98812.00;;;;5055445;28;20083;-63
2023/08/13 08:23:49;;;;;;;4.38;1.92;;;;;26.20;98818.00;;;;5055369;28;20083;-63
2023/08/13 08:26:16;;;;;;;2.83;1.92;;;;;26.20;98818.00;;;;5073689;28;20055;-63
2023/08/13 08:28:42;;;;;;;4.15;1.98;;;;;26.30;98811.00;;;;5054762;28;20132;-63
2023/08/13 08:31:09;;;;;;;5.68;2.50;;;;;26.30;98817.00;;;;5057371;28;20047;-63
2023/08/13 08:33:35;;;;;;;4.25;1.90;;;;;26.40;98815.00;;;;5073345;28;20049;-63
2023/08/13 08:36:02;;;;;;;3.80;1.77;;;;;26.30;98823.00;;;;5058370;28;20533;-63
2023/08/13 08:38:29;;;;;;;3.75;1.92;;;;;26.20;98818.00;;;;5072522;28;20054;-62
2023/08/13 08:40:56;;;;;;;3.97;1.70;;;;;26.30;98821.00;;;;5072368;28;20037;-62
2023/08/13 08:43:26;;;;;;;2.63;1.70;;;;;26.30;98818.00;;;;5072664;28;20045;-62
2023/08/13 08:45:54;;;;;;;3.28;1.60;;;;;26.30;98821.00;;;;5072452;28;20135;-62
2023/08/13 08:48:22;;;;;;;2.80;1.67;;;;;26.30;98818.00;;;;5072467;28;20127;-61
2023/08/13 08:50:50;;;;;;;3.70;1.83;;;;;26.40;98818.00;;;;5054329;28;20070;-62
2023/08/13 08:53:17;;;;;;;5.00;1.75;;;;;26.40;98818.00;;;;5072067;28;20044;-62
2023/08/13 08:55:45;;;;;;;4.45;1.67;;;;;26.50;98815.00;;;;5072174;28;20040;-62
2023/08/13 08:58:12;;;;;;;3.40;1.42;;;;;26.60;98809.00;;;;5054967;28;20536;-62
2023/08/13 09:00:38;;;;;;;4.85;2.03;;;;;26.60;98812.00;;;;5073822;28;20482;-62
2023/08/13 09:03:06;;;;;;;2.33;1.75;;;;;26.70;98810.00;;;;5073373;28;20395;-63
2023/08/13 09:05:33;;;;;;;3.08;1.60;;;;;26.80;98804.00;;;;5057290;28;20045;-62
2023/08/13 09:08:05;;;;;;;4.70;1.92;;;;;26.90;98817.00;;;;5055595;28;20044;-62
2023/08/13 09:10:32;;;;;;;5.75;1.77;;;;;27.00;98819.00;;;;5072377;28;20068;-62
2023/08/13 09:12:58;;;;;;;5.05;1.90;;;;;26.90;98816.00;;;;5072041;28;20416;-62
2023/08/13 09:15:25;;;;;;;3.65;1.60;;;;;27.00;98813.00;;;;5072150;28;20123;-63
2023/08/13 09:17:51;;;;;;;3.78;1.70;;;;;27.00;98810.00;;;;5055494;28;20047;-61
2023/08/13 09:20:20;;;;;;;6.72;1.92;;;;;27.00;98809.00;;;;5073082;28;20082;-62
2023/08/13 09:22:48;;;;;;;3.90;1.63;;;;;27.20;98809.00;;;;5072755;28;20079;-61
2023/08/13 09:25:15;;;;;;;4.63;2.00;;;;;27.30;98805.00;;;;5072021;28;20063;-61
2023/08/13 09:27:43;;;;;;;3.20;1.50;;;;;27.40;98803.00;;;;5054757;28;20053;-61
2023/08/13 09:30:26;;;;;;;6.20;1.73;;;;;27.40;98799.00;;;;5072250;28;20400;-61
2023/08/13 09:32:53;;;;;;;3.42;2.20;;;;;27.60;98800.00;;;;5037801;28;20512;-61
2023/08/13 09:35:20;;;;;;;2.67;1.73;;;;;27.70;98807.00;;;;5056586;28;20056;-61
2023/08/13 09:37:47;;;;;;;3.78;1.50;;;;;27.80;98807.00;;;;5077530;28;20053;-61
2023/08/13 09:40:14;;;;;;;4.75;2.97;;;;;27.80;98809.00;;;;5058912;28;20115;-61
2023/08/13 09:42:42;;;;;;;4.32;1.80;;;;;27.80;98806.00;;;;5058845;28;20139;-61
2023/08/13 09:45:10;;;;;;;4.32;1.60;;;;;27.90;98804.00;;;;5077744;28;20135;-62
2023/08/13 09:47:40;;;;;;;3.60;1.98;;;;;27.90;98802.00;;;;5042172;28;20049;-61
2023/08/13 09:50:10;;;;;;;3.15;1.42;;;;;27.90;98809.00;;;;5057903;28;20041;-61
2023/08/13 09:52:37;;;;;;;2.53;1.50;;;;;28.00;98797.00;;;;5075673;28;20071;-61
2023/08/13 09:55:11;;;;;;;6.20;2.08;;;;;28.00;98804.00;;;;5075065;28;20084;-62
2023/08/13 09:57:39;;;;;;;2.33;1.40;;;;;28.00;98801.00;;;;5075330;28;20052;-62
2023/08/13 10:00:07;;;;;;;3.22;1.50;;;;;27.90;98799.00;;;;5040682;28;20044;-62
2023/08/13 10:02:38;;;;;;;3.33;1.40;;;;;27.80;98802.00;;;;5075308;28;20067;-61
2023/08/13 10:05:06;;;;;;;3.35;1.67;;;;;27.80;98791.00;;;;5075443;28;20545;-61
2023/08/13 10:07:34;;;;;;;4.78;2.05;;;;;27.90;98788.00;;;;5057696;28;20465;-61
2023/08/13 10:10:02;;;;;;;4.90;1.67;;;;;28.20;98793.00;;;;5074752;28;20040;-61
2023/08/13 10:12:35;;;;;;;3.38;1.50;;;;;28.10;98788.00;;;;5057954;28;20123;-61
2023/08/13 10:15:01;;;;;;;2.92;1.48;;;;;28.00;98786.00;;;;5075483;28;20051;-61
2023/08/13 10:17:29;;;;;;;8.38;1.60;;;;;28.00;98793.00;;;;5075950;28;20511;-61
2023/08/13 10:19:56;;;;;;;3.65;1.95;;;;;28.20;98795.00;;;;5076012;28;20490;-62
2023/08/13 10:22:31;;;;;;;2.97;1.73;;;;;28.10;98793.00;;;;5056860;28;20045;-61
2023/08/13 10:24:59;;;;;;;4.22;1.65;;;;;28.20;98793.00;;;;5056677;28;20148;-61
2023/08/13 10:27:27;;;;;;;2.42;1.40;;;;;28.20;98799.00;;;;5075720;28;20511;-61
2023/08/13 10:30:26;;;;;;;2.85;1.45;;;;;28.30;98802.00;;;;5074197;28;20045;-61
2023/08/13 10:33:00;;;;;;;2.60;1.33;;;;;28.30;98797.00;;;;5034541;28;20129;-61
2023/08/13 10:35:31;;;;;;;2.53;1.55;;;;;28.40;98798.00;;;;5056186;28;20049;-61
2023/08/13 10:38:03;;;;;;;3.90;1.63;;;;;28.50;98794.00;;;;5074552;28;20485;-61
2023/08/13 10:40:30;;;;;;;3.08;1.58;;;;;28.60;98798.00;;;;5073999;28;20123;-62
2023/08/13 10:43:00;;;;;;;2.78;1.40;;;;;28.60;98798.00;;;;5074034;28;20068;-62
2023/08/13 10:45:29;;;;;;;5.70;1.85;;;;;28.60;98796.00;;;;5056869;28;20512;-62
2023/08/13 10:48:06;;;;;;;2.88;1.48;;;;;28.60;98783.00;;;;5055782;28;20389;-62
2023/08/13 10:50:38;;;;;;;3.70;1.92;;;;;28.60;98796.00;;;;5055864;28;20044;-63
2023/08/13 10:53:11;;;;;;;3.85;1.80;;;;;28.70;98783.00;;;;5056763;28;20072;-63
2023/08/13 10:55:40;;;;;;;4.03;1.85;;;;;28.80;98773.00;;;;5040259;28;20059;-64
2023/08/13 10:58:20;;;;;;;2.53;1.20;;;;;28.90;98777.00;;;;5056073;28;20094;-64
2023/08/13 11:00:47;;;;;;;2.50;1.50;;;;;29.10;98779.00;;;;5073592;28;20037;-64
2023/08/13 11:03:18;;;;;;;3.13;1.27;;;;;29.20;98770.00;;;;5073572;28;20071;-63
2023/08/13 11:05:49;;;;;;;3.00;1.15;;;;;29.30;98769.00;;;;5073806;28;20493;-64
2023/08/13 11:08:24;;;;;;;2.58;1.27;;;;;29.20;98776.00;;;;5056335;28;20044;-63
2023/08/13 11:11:10;;;;;;;2.45;1.52;;;;;29.20;98782.00;;;;5073543;28;20044;-64
2023/08/13 11:13:37;;;;;;;2.35;1.42;;;;;29.20;98784.00;;;;5055605;28;20056;-63
2023/08/13 11:16:04;;;;;;;3.72;1.40;;;;;29.20;98780.00;;;;5073388;28;20053;-63
2023/08/13 11:18:30;;;;;;;1.90;1.20;;;;;29.30;98787.00;;;;5073700;28;20093;-64
2023/08/13 11:20:57;;;;;;;1.95;1.40;;;;;29.40;98785.00;;;;5073150;28;20036;-63
2023/08/13 11:23:25;;;;;;;1.45;1.27;;;;;29.40;98780.00;;;;5055352;28;20620;-62
2023/08/13 11:25:52;;;;;;;3.22;1.33;;;;;29.40;98792.00;;;;5055492;28;20127;-63
2023/08/13 11:28:23;;;;;;;3.60;2.05;;;;;29.40;98779.00;;;;5055112;28;20493;-64
2023/08/13 11:30:52;;;;;;;3.70;1.73;;;;;29.40;98775.00;;;;5055497;28;20124;-63
2023/08/13 11:33:19;;;;;;;2.78;1.50;;;;;29.40;98769.00;;;;5073126;28;20054;-64
2023/08/13 11:35:46;;;;;;;3.95;1.95;;;;;29.60;98777.00;;;;5073005;28;20045;-64
2023/08/13 11:38:13;;;;;;;2.47;1.33;;;;;29.70;98777.00;;;;5073205;28;20692;-63
2023/08/13 11:40:43;;;;;;;3.67;1.42;;;;;29.90;98783.00;;;;5072891;28;20044;-63
2023/08/13 11:43:11;;;;;;;2.40;1.08;;;;;29.90;98779.00;;;;5055548;28;20123;-62
2023/08/13 11:45:39;;;;;;;2.15;1.25;;;;;30.00;98778.00;;;;5072959;28;20123;-62
2023/08/13 11:48:17;;;;;;;5.18;1.05;;;;;29.90;98775.00;;;;5054608;28;20539;-62
2023/08/13 11:50:56;;;;;;;1.83;1.02;;;;;29.80;98768.00;;;;5072561;28;20040;-62
2023/08/13 11:53:46;;;;;;;4.07;1.52;;;;;29.60;98775.00;;;;5072862;28;20048;-62
2023/08/13 11:56:14;;;;;;;2.53;1.20;;;;;29.40;98769.00;;;;5072864;28;20047;-62
2023/08/13 11:58:41;;;;;;;2.70;1.00;;;;;29.30;98770.00;;;;5072465;28;20049;-62
2023/08/13 12:01:10;;;;;;;2.22;1.20;;;;;29.40;98764.00;;;;5072540;28;20094;-62
2023/08/13 12:03:42;;;;;;;2.42;1.58;;;;;29.50;98756.00;;;;5072606;28;20094;-62
2023/08/13 12:06:12;;;;;;;3.00;1.73;;;;;29.50;98745.00;;;;5054796;28;20048;-62
2023/08/13 12:08:44;;;;;;;2.60;1.20;;;;;29.50;98743.00;;;;5054940;28;20044;-62
2023/08/13 12:11:11;;;;;;;;;;;;;29.50;98747.00;;;;5072708;28;20127;-63
2023/08/13 12:13:41;;;;;;;2.75;1.30;;;;;29.50;98745.00;;;;5072506;28;20367;-62
2023/08/13 12:16:08;;;;;;;3.90;1.15;;;;;29.50;98740.00;;;;5038149;28;20052;-62
2023/08/13 12:18:34;;;;;;;2.05;1.30;;;;;29.40;98740.00;;;;5072503;28;20123;-62
2023/08/13 12:21:01;;;;;;;2.65;1.70;;;;;29.50;98738.00;;;;5072214;28;20046;-63
2023/08/13 12:23:28;;;;;;;3.35;1.20;;;;;29.60;98745.00;;;;5072581;28;20041;-62